sensor_id;sensor_type;location;lat;lon;timestamp;P1;durP1;ratioP1;P2;durP2;ratioP2
4986;SDS011;12674;51.500;7.552;2023-04-16T00:00:25;23.67;;;13.83;;
4986;SDS011;12674;51.500;7.552;2023-04-16T00:02:28;25.77;;;13.37;;
4986;SDS011;12674;51.500;7.552;2023-04-16T00:04:31;23.10;;;13.20;;
4986;SDS011;12674;51.500;7.552;2023-04-16T00:06:35;23.80;;;13.23;;
4986;SDS011;12674;51.500;7.552;2023-04-16T00:08:39;28.30;;;14.83;;
4986;SDS011;12674;51.500;7.552;2023-04-16T00:10:44;22.17;;;14.27;;
4986;SDS011;12674;51.500;7.552;2023-04-16T00:12:47;25.50;;;13.60;;
4986;SDS011;12674;51.500;7.552;2023-04-16T00:14:49;24.00;;;13.90;;
4986;SDS011;12674;51.500;7.552;2023-04-16T00:16:52;26.07;;;14.60;;
4986;SDS011;12674;51.500;7.552;2023-04-16T00:18:55;30.33;;;16.07;;
4986;SDS011;12674;51.500;7.552;2023-04-16T00:20:58;30.73;;;14.53;;
4986;SDS011;12674;51.500;7.552;2023-04-16T00:23:01;27.07;;;14.70;;
4986;SDS011;12674;51.500;7.552;2023-04-16T00:25:06;27.10;;;14.83;;
4986;SDS011;12674;51.500;7.552;2023-04-16T00:27:09;34.20;;;17.50;;
4986;SDS011;12674;51.500;7.552;2023-04-16T00:29:12;32.30;;;15.93;;
4986;SDS011;12674;51.500;7.552;2023-04-16T00:31:15;33.20;;;15.43;;
4986;SDS011;12674;51.500;7.552;2023-04-16T00:33:18;23.67;;;14.67;;
4986;SDS011;12674;51.500;7.552;2023-04-16T00:35:21;33.37;;;15.67;;
4986;SDS011;12674;51.500;7.552;2023-04-16T00:37:24;28.60;;;15.40;;
4986;SDS011;12674;51.500;7.552;2023-04-16T00:39:27;26.40;;;15.53;;
4986;SDS011;12674;51.500;7.552;2023-04-16T00:41:33;23.03;;;14.80;;
4986;SDS011;12674;51.500;7.552;2023-04-16T00:43:36;26.80;;;16.20;;
4986;SDS011;12674;51.500;7.552;2023-04-16T00:45:39;36.60;;;18.10;;
4986;SDS011;12674;51.500;7.552;2023-04-16T00:47:42;34.63;;;19.10;;
4986;SDS011;12674;51.500;7.552;2023-04-16T00:49:45;35.50;;;18.57;;
4986;SDS011;12674;51.500;7.552;2023-04-16T00:51:48;31.37;;;17.73;;
4986;SDS011;12674;51.500;7.552;2023-04-16T00:53:52;29.67;;;17.17;;
4986;SDS011;12674;51.500;7.552;2023-04-16T00:55:55;34.10;;;18.37;;
4986;SDS011;12674;51.500;7.552;2023-04-16T00:58:00;39.97;;;19.10;;
4986;SDS011;12674;51.500;7.552;2023-04-16T01:00:03;32.07;;;17.47;;
4986;SDS011;12674;51.500;7.552;2023-04-16T01:02:06;40.60;;;18.50;;
4986;SDS011;12674;51.500;7.552;2023-04-16T01:04:09;28.37;;;17.33;;
4986;SDS011;12674;51.500;7.552;2023-04-16T01:06:13;31.10;;;17.13;;
4986;SDS011;12674;51.500;7.552;2023-04-16T01:08:16;32.63;;;17.57;;
4986;SDS011;12674;51.500;7.552;2023-04-16T01:10:20;28.57;;;16.90;;
4986;SDS011;12674;51.500;7.552;2023-04-16T01:12:23;32.17;;;17.90;;
4986;SDS011;12674;51.500;7.552;2023-04-16T01:14:28;28.50;;;17.67;;
4986;SDS011;12674;51.500;7.552;2023-04-16T01:16:32;31.83;;;17.57;;
4986;SDS011;12674;51.500;7.552;2023-04-16T01:18:35;31.80;;;18.93;;
4986;SDS011;12674;51.500;7.552;2023-04-16T01:20:40;38.87;;;19.43;;
4986;SDS011;12674;51.500;7.552;2023-04-16T01:22:43;33.40;;;18.93;;
4986;SDS011;12674;51.500;7.552;2023-04-16T01:24:46;33.90;;;18.70;;
4986;SDS011;12674;51.500;7.552;2023-04-16T01:26:49;38.50;;;19.17;;
4986;SDS011;12674;51.500;7.552;2023-04-16T01:28:52;36.03;;;19.30;;
4986;SDS011;12674;51.500;7.552;2023-04-16T01:30:55;40.93;;;20.10;;
4986;SDS011;12674;51.500;7.552;2023-04-16T01:33:21;37.97;;;20.90;;
4986;SDS011;12674;51.500;7.552;2023-04-16T01:35:24;38.20;;;22.40;;
4986;SDS011;12674;51.500;7.552;2023-04-16T01:37:28;43.57;;;25.10;;
4986;SDS011;12674;51.500;7.552;2023-04-16T01:39:32;51.03;;;28.50;;
4986;SDS011;12674;51.500;7.552;2023-04-16T01:41:35;46.13;;;26.87;;
4986;SDS011;12674;51.500;7.552;2023-04-16T01:43:38;54.93;;;26.67;;
4986;SDS011;12674;51.500;7.552;2023-04-16T01:45:41;50.97;;;27.63;;
4986;SDS011;12674;51.500;7.552;2023-04-16T01:47:45;46.00;;;25.70;;
4986;SDS011;12674;51.500;7.552;2023-04-16T01:49:48;54.60;;;29.13;;
4986;SDS011;12674;51.500;7.552;2023-04-16T01:51:51;56.47;;;29.80;;
4986;SDS011;12674;51.500;7.552;2023-04-16T01:53:56;52.80;;;28.50;;
4986;SDS011;12674;51.500;7.552;2023-04-16T01:55:59;47.57;;;28.90;;
4986;SDS011;12674;51.500;7.552;2023-04-16T01:58:02;46.27;;;27.10;;
4986;SDS011;12674;51.500;7.552;2023-04-16T02:00:07;49.77;;;26.73;;
4986;SDS011;12674;51.500;7.552;2023-04-16T02:02:18;55.83;;;28.00;;
4986;SDS011;12674;51.500;7.552;2023-04-16T02:04:24;55.07;;;27.60;;
4986;SDS011;12674;51.500;7.552;2023-04-16T02:06:28;51.53;;;25.93;;
4986;SDS011;12674;51.500;7.552;2023-04-16T02:08:31;46.50;;;26.43;;
4986;SDS011;12674;51.500;7.552;2023-04-16T02:10:36;53.93;;;27.40;;
4986;SDS011;12674;51.500;7.552;2023-04-16T02:12:39;51.50;;;25.90;;
4986;SDS011;12674;51.500;7.552;2023-04-16T02:14:42;44.30;;;26.00;;
4986;SDS011;12674;51.500;7.552;2023-04-16T02:16:47;37.80;;;21.47;;
4986;SDS011;12674;51.500;7.552;2023-04-16T02:19:13;44.27;;;21.53;;
4986;SDS011;12674;51.500;7.552;2023-04-16T02:21:16;43.57;;;19.77;;
4986;SDS011;12674;51.500;7.552;2023-04-16T02:23:20;34.40;;;19.00;;
4986;SDS011;12674;51.500;7.552;2023-04-16T02:25:23;40.17;;;19.50;;
4986;SDS011;12674;51.500;7.552;2023-04-16T02:27:30;32.40;;;18.70;;
4986;SDS011;12674;51.500;7.552;2023-04-16T02:29:47;31.83;;;19.70;;
4986;SDS011;12674;51.500;7.552;2023-04-16T02:31:51;33.90;;;19.33;;
4986;SDS011;12674;51.500;7.552;2023-04-16T02:33:54;36.33;;;18.97;;
4986;SDS011;12674;51.500;7.552;2023-04-16T02:35:57;34.37;;;18.43;;
4986;SDS011;12674;51.500;7.552;2023-04-16T02:38:00;33.07;;;18.80;;
4986;SDS011;12674;51.500;7.552;2023-04-16T02:40:05;32.67;;;19.63;;
4986;SDS011;12674;51.500;7.552;2023-04-16T02:42:09;29.87;;;19.20;;
4986;SDS011;12674;51.500;7.552;2023-04-16T02:44:14;34.20;;;18.37;;
4986;SDS011;12674;51.500;7.552;2023-04-16T02:46:17;35.13;;;19.23;;
4986;SDS011;12674;51.500;7.552;2023-04-16T02:48:20;32.50;;;19.57;;
4986;SDS011;12674;51.500;7.552;2023-04-16T02:50:23;34.43;;;21.30;;
4986;SDS011;12674;51.500;7.552;2023-04-16T02:52:25;32.40;;;20.53;;
4986;SDS011;12674;51.500;7.552;2023-04-16T02:54:28;37.90;;;21.50;;
4986;SDS011;12674;51.500;7.552;2023-04-16T02:56:31;38.83;;;21.27;;
4986;SDS011;12674;51.500;7.552;2023-04-16T02:58:34;37.43;;;21.37;;
4986;SDS011;12674;51.500;7.552;2023-04-16T03:00:39;41.63;;;21.90;;
4986;SDS011;12674;51.500;7.552;2023-04-16T03:02:42;37.03;;;22.50;;
4986;SDS011;12674;51.500;7.552;2023-04-16T03:04:45;39.20;;;20.40;;
4986;SDS011;12674;51.500;7.552;2023-04-16T03:06:48;38.47;;;21.67;;
4986;SDS011;12674;51.500;7.552;2023-04-16T03:08:51;36.60;;;21.33;;
4986;SDS011;12674;51.500;7.552;2023-04-16T03:10:54;33.13;;;21.57;;
4986;SDS011;12674;51.500;7.552;2023-04-16T03:12:57;32.47;;;20.93;;
4986;SDS011;12674;51.500;7.552;2023-04-16T03:15:00;43.80;;;22.57;;
4986;SDS011;12674;51.500;7.552;2023-04-16T03:17:04;44.37;;;22.70;;
4986;SDS011;12674;51.500;7.552;2023-04-16T03:19:07;36.63;;;21.23;;
4986;SDS011;12674;51.500;7.552;2023-04-16T03:21:11;43.30;;;22.87;;
4986;SDS011;12674;51.500;7.552;2023-04-16T03:23:13;40.17;;;21.60;;
4986;SDS011;12674;51.500;7.552;2023-04-16T03:25:17;34.37;;;22.10;;
4986;SDS011;12674;51.500;7.552;2023-04-16T03:27:21;35.47;;;20.57;;
4986;SDS011;12674;51.500;7.552;2023-04-16T03:29:24;34.83;;;21.67;;
4986;SDS011;12674;51.500;7.552;2023-04-16T03:31:28;33.70;;;20.33;;
4986;SDS011;12674;51.500;7.552;2023-04-16T03:33:33;40.90;;;21.43;;
4986;SDS011;12674;51.500;7.552;2023-04-16T03:35:37;44.80;;;21.30;;
4986;SDS011;12674;51.500;7.552;2023-04-16T03:37:41;31.50;;;20.40;;
4986;SDS011;12674;51.500;7.552;2023-04-16T03:39:44;38.90;;;22.10;;
4986;SDS011;12674;51.500;7.552;2023-04-16T03:41:47;36.83;;;20.70;;
4986;SDS011;12674;51.500;7.552;2023-04-16T03:43:50;36.33;;;20.20;;
4986;SDS011;12674;51.500;7.552;2023-04-16T03:45:54;37.40;;;21.97;;
4986;SDS011;12674;51.500;7.552;2023-04-16T03:47:58;30.57;;;20.27;;
4986;SDS011;12674;51.500;7.552;2023-04-16T03:50:02;33.73;;;19.97;;
4986;SDS011;12674;51.500;7.552;2023-04-16T03:52:06;33.17;;;19.80;;
4986;SDS011;12674;51.500;7.552;2023-04-16T03:54:12;31.70;;;20.73;;
4986;SDS011;12674;51.500;7.552;2023-04-16T03:56:18;38.23;;;19.33;;
4986;SDS011;12674;51.500;7.552;2023-04-16T03:58:23;28.93;;;20.10;;
4986;SDS011;12674;51.500;7.552;2023-04-16T04:00:27;35.17;;;20.70;;
4986;SDS011;12674;51.500;7.552;2023-04-16T04:02:37;36.73;;;20.40;;
4986;SDS011;12674;51.500;7.552;2023-04-16T04:04:46;35.67;;;21.77;;
4986;SDS011;12674;51.500;7.552;2023-04-16T04:06:51;46.93;;;21.63;;
4986;SDS011;12674;51.500;7.552;2023-04-16T04:08:54;38.03;;;21.00;;
4986;SDS011;12674;51.500;7.552;2023-04-16T04:10:57;36.93;;;21.13;;
4986;SDS011;12674;51.500;7.552;2023-04-16T04:13:01;45.80;;;22.03;;
4986;SDS011;12674;51.500;7.552;2023-04-16T04:15:06;45.47;;;21.20;;
4986;SDS011;12674;51.500;7.552;2023-04-16T04:17:09;36.70;;;21.60;;
4986;SDS011;12674;51.500;7.552;2023-04-16T04:19:12;46.83;;;23.57;;
4986;SDS011;12674;51.500;7.552;2023-04-16T04:21:16;49.30;;;26.50;;
4986;SDS011;12674;51.500;7.552;2023-04-16T04:23:20;46.97;;;24.77;;
4986;SDS011;12674;51.500;7.552;2023-04-16T04:25:23;48.60;;;24.30;;
4986;SDS011;12674;51.500;7.552;2023-04-16T04:27:26;52.03;;;25.97;;
4986;SDS011;12674;51.500;7.552;2023-04-16T04:29:30;45.30;;;25.40;;
4986;SDS011;12674;51.500;7.552;2023-04-16T04:31:33;54.30;;;25.83;;
4986;SDS011;12674;51.500;7.552;2023-04-16T04:33:36;45.40;;;23.87;;
4986;SDS011;12674;51.500;7.552;2023-04-16T04:35:40;47.93;;;24.97;;
4986;SDS011;12674;51.500;7.552;2023-04-16T04:37:42;45.47;;;26.43;;
4986;SDS011;12674;51.500;7.552;2023-04-16T04:39:50;45.93;;;25.90;;
4986;SDS011;12674;51.500;7.552;2023-04-16T04:41:53;50.43;;;25.83;;
4986;SDS011;12674;51.500;7.552;2023-04-16T04:43:57;55.10;;;26.40;;
4986;SDS011;12674;51.500;7.552;2023-04-16T04:45:59;50.03;;;27.17;;
4986;SDS011;12674;51.500;7.552;2023-04-16T04:48:04;56.90;;;26.70;;
4986;SDS011;12674;51.500;7.552;2023-04-16T04:50:08;43.57;;;25.87;;
4986;SDS011;12674;51.500;7.552;2023-04-16T04:52:12;56.30;;;26.90;;
4986;SDS011;12674;51.500;7.552;2023-04-16T04:54:16;46.03;;;26.60;;
4986;SDS011;12674;51.500;7.552;2023-04-16T04:56:20;48.70;;;26.27;;
4986;SDS011;12674;51.500;7.552;2023-04-16T04:58:23;53.23;;;27.47;;
4986;SDS011;12674;51.500;7.552;2023-04-16T05:00:26;46.10;;;26.50;;
4986;SDS011;12674;51.500;7.552;2023-04-16T05:02:30;45.40;;;26.30;;
4986;SDS011;12674;51.500;7.552;2023-04-16T05:04:33;40.50;;;24.07;;
4986;SDS011;12674;51.500;7.552;2023-04-16T05:06:36;56.33;;;25.30;;
4986;SDS011;12674;51.500;7.552;2023-04-16T05:08:39;45.33;;;26.73;;
4986;SDS011;12674;51.500;7.552;2023-04-16T05:10:42;43.63;;;25.27;;
4986;SDS011;12674;51.500;7.552;2023-04-16T05:12:47;45.93;;;26.90;;
4986;SDS011;12674;51.500;7.552;2023-04-16T05:14:50;43.03;;;25.37;;
4986;SDS011;12674;51.500;7.552;2023-04-16T05:16:52;45.63;;;26.10;;
4986;SDS011;12674;51.500;7.552;2023-04-16T05:18:55;50.20;;;28.40;;
4986;SDS011;12674;51.500;7.552;2023-04-16T05:20:59;57.37;;;29.40;;
4986;SDS011;12674;51.500;7.552;2023-04-16T05:23:02;53.13;;;27.90;;
4986;SDS011;12674;51.500;7.552;2023-04-16T05:25:05;47.03;;;29.17;;
4986;SDS011;12674;51.500;7.552;2023-04-16T05:27:08;53.03;;;27.30;;
4986;SDS011;12674;51.500;7.552;2023-04-16T05:29:12;52.27;;;28.07;;
4986;SDS011;12674;51.500;7.552;2023-04-16T05:31:15;47.83;;;26.70;;
4986;SDS011;12674;51.500;7.552;2023-04-16T05:33:18;45.20;;;26.30;;
4986;SDS011;12674;51.500;7.552;2023-04-16T05:35:22;47.10;;;27.20;;
4986;SDS011;12674;51.500;7.552;2023-04-16T05:37:25;46.10;;;26.70;;
4986;SDS011;12674;51.500;7.552;2023-04-16T05:39:28;51.70;;;28.17;;
4986;SDS011;12674;51.500;7.552;2023-04-16T05:41:31;148.77;;;101.07;;
4986;SDS011;12674;51.500;7.552;2023-04-16T05:43:36;71.70;;;43.07;;
4986;SDS011;12674;51.500;7.552;2023-04-16T05:45:41;46.80;;;28.70;;
4986;SDS011;12674;51.500;7.552;2023-04-16T05:47:44;46.13;;;26.03;;
4986;SDS011;12674;51.500;7.552;2023-04-16T05:49:47;43.70;;;25.67;;
4986;SDS011;12674;51.500;7.552;2023-04-16T05:51:50;43.93;;;26.47;;
4986;SDS011;12674;51.500;7.552;2023-04-16T05:53:53;45.13;;;25.20;;
4986;SDS011;12674;51.500;7.552;2023-04-16T05:55:56;49.07;;;27.33;;
4986;SDS011;12674;51.500;7.552;2023-04-16T05:57:59;44.70;;;27.63;;
4986;SDS011;12674;51.500;7.552;2023-04-16T06:00:05;39.30;;;25.37;;
4986;SDS011;12674;51.500;7.552;2023-04-16T06:02:19;42.53;;;25.70;;
4986;SDS011;12674;51.500;7.552;2023-04-16T06:04:23;53.60;;;27.40;;
4986;SDS011;12674;51.500;7.552;2023-04-16T06:06:26;44.80;;;26.20;;
4986;SDS011;12674;51.500;7.552;2023-04-16T06:08:29;37.43;;;24.83;;
4986;SDS011;12674;51.500;7.552;2023-04-16T06:10:32;47.37;;;27.57;;
4986;SDS011;12674;51.500;7.552;2023-04-16T06:12:35;48.67;;;28.30;;
4986;SDS011;12674;51.500;7.552;2023-04-16T06:14:39;46.80;;;27.27;;
4986;SDS011;12674;51.500;7.552;2023-04-16T06:16:42;46.63;;;26.10;;
4986;SDS011;12674;51.500;7.552;2023-04-16T06:18:46;46.20;;;27.43;;
4986;SDS011;12674;51.500;7.552;2023-04-16T06:20:49;50.70;;;27.07;;
4986;SDS011;12674;51.500;7.552;2023-04-16T06:22:52;42.47;;;25.73;;
4986;SDS011;12674;51.500;7.552;2023-04-16T06:24:55;44.37;;;25.40;;
4986;SDS011;12674;51.500;7.552;2023-04-16T06:26:58;41.80;;;26.97;;
4986;SDS011;12674;51.500;7.552;2023-04-16T06:29:01;45.93;;;27.87;;
4986;SDS011;12674;51.500;7.552;2023-04-16T06:31:04;42.77;;;26.87;;
4986;SDS011;12674;51.500;7.552;2023-04-16T06:33:07;37.57;;;24.77;;
4986;SDS011;12674;51.500;7.552;2023-04-16T06:35:13;43.07;;;26.77;;
4986;SDS011;12674;51.500;7.552;2023-04-16T06:37:16;46.40;;;28.30;;
4986;SDS011;12674;51.500;7.552;2023-04-16T06:39:19;44.67;;;27.03;;
4986;SDS011;12674;51.500;7.552;2023-04-16T06:41:22;38.70;;;26.43;;
4986;SDS011;12674;51.500;7.552;2023-04-16T06:43:27;38.83;;;25.73;;
4986;SDS011;12674;51.500;7.552;2023-04-16T06:45:30;47.50;;;27.10;;
4986;SDS011;12674;51.500;7.552;2023-04-16T06:47:33;37.03;;;25.20;;
4986;SDS011;12674;51.500;7.552;2023-04-16T06:49:36;40.77;;;24.87;;
4986;SDS011;12674;51.500;7.552;2023-04-16T06:51:41;36.53;;;25.37;;
4986;SDS011;12674;51.500;7.552;2023-04-16T06:53:44;42.10;;;25.80;;
4986;SDS011;12674;51.500;7.552;2023-04-16T06:55:47;42.50;;;24.97;;
4986;SDS011;12674;51.500;7.552;2023-04-16T06:57:50;35.13;;;24.83;;
4986;SDS011;12674;51.500;7.552;2023-04-16T06:59:53;44.87;;;24.50;;
4986;SDS011;12674;51.500;7.552;2023-04-16T07:01:57;38.20;;;25.20;;
4986;SDS011;12674;51.500;7.552;2023-04-16T07:04:00;36.33;;;24.80;;
4986;SDS011;12674;51.500;7.552;2023-04-16T07:06:04;38.40;;;24.70;;
4986;SDS011;12674;51.500;7.552;2023-04-16T07:08:09;35.90;;;24.20;;
4986;SDS011;12674;51.500;7.552;2023-04-16T07:10:12;42.03;;;26.43;;
4986;SDS011;12674;51.500;7.552;2023-04-16T07:12:15;39.50;;;25.47;;
4986;SDS011;12674;51.500;7.552;2023-04-16T07:14:17;33.63;;;23.90;;
4986;SDS011;12674;51.500;7.552;2023-04-16T07:16:20;35.90;;;23.57;;
4986;SDS011;12674;51.500;7.552;2023-04-16T07:18:24;36.30;;;24.03;;
4986;SDS011;12674;51.500;7.552;2023-04-16T07:20:27;42.60;;;24.93;;
4986;SDS011;12674;51.500;7.552;2023-04-16T07:22:30;33.13;;;23.40;;
4986;SDS011;12674;51.500;7.552;2023-04-16T07:24:34;31.30;;;24.10;;
4986;SDS011;12674;51.500;7.552;2023-04-16T07:26:37;32.43;;;24.37;;
4986;SDS011;12674;51.500;7.552;2023-04-16T07:28:40;36.23;;;25.73;;
4986;SDS011;12674;51.500;7.552;2023-04-16T07:30:43;36.50;;;25.33;;
4986;SDS011;12674;51.500;7.552;2023-04-16T07:32:46;32.33;;;24.30;;
4986;SDS011;12674;51.500;7.552;2023-04-16T07:34:49;36.23;;;25.23;;
4986;SDS011;12674;51.500;7.552;2023-04-16T07:40:36;34.97;;;23.47;;
4986;SDS011;12674;51.500;7.552;2023-04-16T07:42:39;30.80;;;22.53;;
4986;SDS011;12674;51.500;7.552;2023-04-16T07:44:42;34.33;;;24.03;;
4986;SDS011;12674;51.500;7.552;2023-04-16T07:46:45;38.77;;;24.63;;
4986;SDS011;12674;51.500;7.552;2023-04-16T07:48:49;38.40;;;27.40;;
4986;SDS011;12674;51.500;7.552;2023-04-16T07:50:51;37.60;;;25.80;;
4986;SDS011;12674;51.500;7.552;2023-04-16T07:52:54;40.67;;;25.40;;
4986;SDS011;12674;51.500;7.552;2023-04-16T07:54:57;41.33;;;25.77;;
4986;SDS011;12674;51.500;7.552;2023-04-16T07:57:02;46.10;;;26.07;;
4986;SDS011;12674;51.500;7.552;2023-04-16T07:59:05;42.43;;;27.53;;
4986;SDS011;12674;51.500;7.552;2023-04-16T08:01:15;29.20;;;24.00;;
4986;SDS011;12674;51.500;7.552;2023-04-16T08:03:18;37.20;;;25.60;;
4986;SDS011;12674;51.500;7.552;2023-04-16T08:05:21;30.37;;;23.23;;
4986;SDS011;12674;51.500;7.552;2023-04-16T08:07:24;40.93;;;25.10;;
4986;SDS011;12674;51.500;7.552;2023-04-16T08:09:28;28.47;;;22.80;;
4986;SDS011;12674;51.500;7.552;2023-04-16T08:11:31;35.77;;;25.50;;
4986;SDS011;12674;51.500;7.552;2023-04-16T08:13:35;30.23;;;24.30;;
4986;SDS011;12674;51.500;7.552;2023-04-16T08:15:38;35.57;;;25.60;;
4986;SDS011;12674;51.500;7.552;2023-04-16T08:17:42;30.37;;;23.67;;
4986;SDS011;12674;51.500;7.552;2023-04-16T08:19:45;35.70;;;25.40;;
4986;SDS011;12674;51.500;7.552;2023-04-16T08:21:48;32.20;;;23.97;;
4986;SDS011;12674;51.500;7.552;2023-04-16T08:23:51;35.87;;;24.03;;
4986;SDS011;12674;51.500;7.552;2023-04-16T08:25:54;33.70;;;26.47;;
4986;SDS011;12674;51.500;7.552;2023-04-16T08:27:59;34.90;;;25.20;;
4986;SDS011;12674;51.500;7.552;2023-04-16T08:30:03;33.30;;;24.67;;
4986;SDS011;12674;51.500;7.552;2023-04-16T08:32:07;33.63;;;24.37;;
4986;SDS011;12674;51.500;7.552;2023-04-16T08:34:11;35.67;;;25.03;;
4986;SDS011;12674;51.500;7.552;2023-04-16T08:36:13;32.80;;;25.27;;
4986;SDS011;12674;51.500;7.552;2023-04-16T08:38:17;36.70;;;27.43;;
4986;SDS011;12674;51.500;7.552;2023-04-16T08:40:20;35.13;;;26.97;;
4986;SDS011;12674;51.500;7.552;2023-04-16T08:42:26;43.40;;;28.57;;
4986;SDS011;12674;51.500;7.552;2023-04-16T08:44:33;34.20;;;28.17;;
4986;SDS011;12674;51.500;7.552;2023-04-16T08:46:39;35.60;;;26.23;;
4986;SDS011;12674;51.500;7.552;2023-04-16T08:48:43;33.83;;;25.80;;
4986;SDS011;12674;51.500;7.552;2023-04-16T08:50:53;37.43;;;26.93;;
4986;SDS011;12674;51.500;7.552;2023-04-16T08:53:02;36.07;;;25.50;;
4986;SDS011;12674;51.500;7.552;2023-04-16T08:55:07;36.83;;;25.33;;
4986;SDS011;12674;51.500;7.552;2023-04-16T08:57:15;45.43;;;26.80;;
4986;SDS011;12674;51.500;7.552;2023-04-16T08:59:21;34.63;;;24.00;;
4986;SDS011;12674;51.500;7.552;2023-04-16T09:01:24;33.73;;;24.40;;
4986;SDS011;12674;51.500;7.552;2023-04-16T09:03:31;37.30;;;24.70;;
4986;SDS011;12674;51.500;7.552;2023-04-16T09:05:37;33.30;;;25.23;;
4986;SDS011;12674;51.500;7.552;2023-04-16T09:07:41;39.00;;;23.10;;
4986;SDS011;12674;51.500;7.552;2023-04-16T09:09:44;28.40;;;22.10;;
4986;SDS011;12674;51.500;7.552;2023-04-16T09:11:51;30.80;;;23.90;;
4986;SDS011;12674;51.500;7.552;2023-04-16T09:13:55;32.53;;;24.53;;
4986;SDS011;12674;51.500;7.552;2023-04-16T09:15:59;31.67;;;24.93;;
4986;SDS011;12674;51.500;7.552;2023-04-16T09:18:05;35.43;;;25.10;;
4986;SDS011;12674;51.500;7.552;2023-04-16T09:20:11;37.70;;;25.33;;
4986;SDS011;12674;51.500;7.552;2023-04-16T09:22:15;31.77;;;24.20;;
4986;SDS011;12674;51.500;7.552;2023-04-16T09:24:24;35.63;;;26.43;;
4986;SDS011;12674;51.500;7.552;2023-04-16T09:26:41;32.30;;;25.83;;
4986;SDS011;12674;51.500;7.552;2023-04-16T09:28:45;29.93;;;23.90;;
4986;SDS011;12674;51.500;7.552;2023-04-16T09:31:06;35.23;;;26.67;;
4986;SDS011;12674;51.500;7.552;2023-04-16T09:33:11;34.20;;;25.70;;
4986;SDS011;12674;51.500;7.552;2023-04-16T09:35:18;32.50;;;24.90;;
4986;SDS011;12674;51.500;7.552;2023-04-16T09:37:24;33.00;;;24.60;;
4986;SDS011;12674;51.500;7.552;2023-04-16T09:39:30;29.20;;;23.93;;
4986;SDS011;12674;51.500;7.552;2023-04-16T09:41:39;36.87;;;26.07;;
4986;SDS011;12674;51.500;7.552;2023-04-16T09:43:53;31.87;;;24.63;;
4986;SDS011;12674;51.500;7.552;2023-04-16T09:45:58;38.53;;;23.40;;
4986;SDS011;12674;51.500;7.552;2023-04-16T09:48:11;29.13;;;23.23;;
4986;SDS011;12674;51.500;7.552;2023-04-16T09:50:17;37.67;;;22.70;;
4986;SDS011;12674;51.500;7.552;2023-04-16T09:52:25;31.10;;;23.17;;
4986;SDS011;12674;51.500;7.552;2023-04-16T09:54:32;30.37;;;22.60;;
4986;SDS011;12674;51.500;7.552;2023-04-16T09:56:38;41.97;;;24.13;;
4986;SDS011;12674;51.500;7.552;2023-04-16T09:58:42;33.80;;;23.43;;
4986;SDS011;12674;51.500;7.552;2023-04-16T10:00:46;29.83;;;22.60;;
4986;SDS011;12674;51.500;7.552;2023-04-16T10:03:01;30.17;;;23.10;;
4986;SDS011;12674;51.500;7.552;2023-04-16T10:05:08;36.80;;;23.13;;
4986;SDS011;12674;51.500;7.552;2023-04-16T10:07:15;28.23;;;22.80;;
4986;SDS011;12674;51.500;7.552;2023-04-16T10:09:19;35.10;;;23.30;;
4986;SDS011;12674;51.500;7.552;2023-04-16T10:11:23;40.40;;;23.70;;
4986;SDS011;12674;51.500;7.552;2023-04-16T10:13:28;26.43;;;20.77;;
4986;SDS011;12674;51.500;7.552;2023-04-16T10:15:32;27.20;;;20.57;;
4986;SDS011;12674;51.500;7.552;2023-04-16T10:17:35;27.27;;;18.83;;
4986;SDS011;12674;51.500;7.552;2023-04-16T10:19:40;24.98;;;19.17;;
4986;SDS011;12674;51.500;7.552;2023-04-16T10:21:45;23.60;;;18.53;;
4986;SDS011;12674;51.500;7.552;2023-04-16T10:23:53;26.17;;;20.20;;
4986;SDS011;12674;51.500;7.552;2023-04-16T10:25:57;24.80;;;18.73;;
4986;SDS011;12674;51.500;7.552;2023-04-16T10:28:12;24.38;;;18.75;;
4986;SDS011;12674;51.500;7.552;2023-04-16T10:30:18;25.42;;;19.63;;
4986;SDS011;12674;51.500;7.552;2023-04-16T10:32:24;23.70;;;20.30;;
4986;SDS011;12674;51.500;7.552;2023-04-16T10:34:29;27.25;;;21.98;;
4986;SDS011;12674;51.500;7.552;2023-04-16T10:36:35;29.75;;;22.67;;
4986;SDS011;12674;51.500;7.552;2023-04-16T10:38:44;28.98;;;23.00;;
4986;SDS011;12674;51.500;7.552;2023-04-16T10:40:59;24.23;;;18.70;;
4986;SDS011;12674;51.500;7.552;2023-04-16T10:43:04;28.77;;;19.70;;
4986;SDS011;12674;51.500;7.552;2023-04-16T10:45:09;24.77;;;19.92;;
4986;SDS011;12674;51.500;7.552;2023-04-16T10:47:18;28.95;;;21.35;;
4986;SDS011;12674;51.500;7.552;2023-04-16T10:49:24;21.80;;;18.95;;
4986;SDS011;12674;51.500;7.552;2023-04-16T10:51:31;23.33;;;17.38;;
4986;SDS011;12674;51.500;7.552;2023-04-16T10:53:36;22.98;;;17.65;;
4986;SDS011;12674;51.500;7.552;2023-04-16T10:55:40;21.38;;;17.42;;
4986;SDS011;12674;51.500;7.552;2023-04-16T10:58:13;21.70;;;17.75;;
4986;SDS011;12674;51.500;7.552;2023-04-16T11:00:30;28.02;;;19.02;;
4986;SDS011;12674;51.500;7.552;2023-04-16T11:02:33;23.88;;;19.73;;
4986;SDS011;12674;51.500;7.552;2023-04-16T11:04:40;26.60;;;21.33;;
4986;SDS011;12674;51.500;7.552;2023-04-16T11:06:58;23.05;;;18.45;;
4986;SDS011;12674;51.500;7.552;2023-04-16T11:09:16;24.83;;;20.15;;
4986;SDS011;12674;51.500;7.552;2023-04-16T11:11:46;23.17;;;19.02;;
4986;SDS011;12674;51.500;7.552;2023-04-16T11:13:54;22.88;;;18.10;;
4986;SDS011;12674;51.500;7.552;2023-04-16T11:16:00;24.95;;;18.92;;
4986;SDS011;12674;51.500;7.552;2023-04-16T11:18:03;21.08;;;16.80;;
4986;SDS011;12674;51.500;7.552;2023-04-16T11:20:08;20.10;;;17.30;;
4986;SDS011;12674;51.500;7.552;2023-04-16T11:22:22;20.52;;;17.48;;
4986;SDS011;12674;51.500;7.552;2023-04-16T11:24:28;19.25;;;16.98;;
4986;SDS011;12674;51.500;7.552;2023-04-16T11:26:31;22.73;;;16.17;;
4986;SDS011;12674;51.500;7.552;2023-04-16T11:28:35;24.30;;;18.30;;
4986;SDS011;12674;51.500;7.552;2023-04-16T11:30:44;21.23;;;17.05;;
4986;SDS011;12674;51.500;7.552;2023-04-16T11:32:50;21.27;;;16.70;;
4986;SDS011;12674;51.500;7.552;2023-04-16T11:34:54;23.15;;;16.63;;
4986;SDS011;12674;51.500;7.552;2023-04-16T11:36:58;26.25;;;16.65;;
4986;SDS011;12674;51.500;7.552;2023-04-16T11:39:01;20.33;;;16.35;;
4986;SDS011;12674;51.500;7.552;2023-04-16T11:41:05;23.75;;;17.13;;
4986;SDS011;12674;51.500;7.552;2023-04-16T11:43:12;19.52;;;16.90;;
4986;SDS011;12674;51.500;7.552;2023-04-16T11:45:16;20.20;;;16.63;;
4986;SDS011;12674;51.500;7.552;2023-04-16T11:47:22;19.65;;;16.95;;
4986;SDS011;12674;51.500;7.552;2023-04-16T11:49:26;22.98;;;17.15;;
4986;SDS011;12674;51.500;7.552;2023-04-16T11:51:30;23.77;;;17.40;;
4986;SDS011;12674;51.500;7.552;2023-04-16T11:53:33;19.33;;;15.07;;
4986;SDS011;12674;51.500;7.552;2023-04-16T11:55:41;17.77;;;15.77;;
4986;SDS011;12674;51.500;7.552;2023-04-16T11:57:48;20.05;;;14.50;;
4986;SDS011;12674;51.500;7.552;2023-04-16T11:59:53;15.98;;;13.77;;
4986;SDS011;12674;51.500;7.552;2023-04-16T12:02:12;20.98;;;13.95;;
4986;SDS011;12674;51.500;7.552;2023-04-16T12:04:19;18.10;;;14.65;;
4986;SDS011;12674;51.500;7.552;2023-04-16T12:06:23;20.90;;;15.65;;
4986;SDS011;12674;51.500;7.552;2023-04-16T12:08:27;20.02;;;15.90;;
4986;SDS011;12674;51.500;7.552;2023-04-16T12:10:32;19.77;;;14.90;;
4986;SDS011;12674;51.500;7.552;2023-04-16T12:12:37;16.85;;;14.70;;
4986;SDS011;12674;51.500;7.552;2023-04-16T12:14:48;15.50;;;13.85;;
4986;SDS011;12674;51.500;7.552;2023-04-16T12:17:17;17.73;;;14.32;;
4986;SDS011;12674;51.500;7.552;2023-04-16T12:19:23;17.08;;;13.23;;
4986;SDS011;12674;51.500;7.552;2023-04-16T12:21:34;20.15;;;14.50;;
4986;SDS011;12674;51.500;7.552;2023-04-16T12:23:38;18.23;;;13.75;;